Terminal Aerodrome Forecast
Issued by NWS Twin Cities, MN

Home | Current Version | Previous Version | Text Only | Print | Product List | Glossary On
Versions: 1 2 3 4 5 6 7 8 9 10 11 12 13 14 15 16 17 18 19 20
000
FTUS43 KMPX 240657 AAA
TAFSTC
TAF AMD
KSTC 240657Z 2407/2506 25007KT P6SM VCSH BKN013
      TEMPO 2407/2409 SCT013 BKN040
     FM240900 29005KT P6SM FEW020 BKN250
     FM241500 30014G22KT P6SM FEW050 SCT250
     FM250100 29006KT P6SM SKC=

USA.gov is the U.S. government's official web portal to all federal, state and local government web resources and services.